sensor_id;sensor_type;location;lat;lon;timestamp;P1;durP1;ratioP1;P2;durP2;ratioP2
51981;SDS011;37998;53.416;6.730;2022-11-15T00:00:51;33.28;;;24.00;;
51981;SDS011;37998;53.416;6.730;2022-11-15T00:03:17;30.17;;;23.05;;
51981;SDS011;37998;53.416;6.730;2022-11-15T00:05:44;32.05;;;23.67;;
51981;SDS011;37998;53.416;6.730;2022-11-15T00:08:10;29.17;;;21.73;;
51981;SDS011;37998;53.416;6.730;2022-11-15T00:10:36;31.25;;;22.50;;
51981;SDS011;37998;53.416;6.730;2022-11-15T00:13:05;31.23;;;22.65;;
51981;SDS011;37998;53.416;6.730;2022-11-15T00:15:35;35.97;;;24.88;;
51981;SDS011;37998;53.416;6.730;2022-11-15T00:18:02;32.45;;;23.45;;
51981;SDS011;37998;53.416;6.730;2022-11-15T00:20:29;33.45;;;24.10;;
51981;SDS011;37998;53.416;6.730;2022-11-15T00:22:54;29.88;;;22.58;;
51981;SDS011;37998;53.416;6.730;2022-11-15T00:25:20;31.15;;;22.88;;
51981;SDS011;37998;53.416;6.730;2022-11-15T00:27:46;31.42;;;22.45;;
51981;SDS011;37998;53.416;6.730;2022-11-15T00:30:12;34.08;;;23.20;;
51981;SDS011;37998;53.416;6.730;2022-11-15T00:32:37;33.65;;;23.48;;
51981;SDS011;37998;53.416;6.730;2022-11-15T00:35:03;30.73;;;23.17;;
51981;SDS011;37998;53.416;6.730;2022-11-15T00:37:29;31.60;;;24.20;;
51981;SDS011;37998;53.416;6.730;2022-11-15T00:39:55;31.05;;;23.02;;
51981;SDS011;37998;53.416;6.730;2022-11-15T00:42:20;32.35;;;23.52;;
51981;SDS011;37998;53.416;6.730;2022-11-15T00:44:46;33.28;;;23.60;;
51981;SDS011;37998;53.416;6.730;2022-11-15T00:47:11;32.55;;;23.10;;
51981;SDS011;37998;53.416;6.730;2022-11-15T00:49:37;32.15;;;23.80;;
51981;SDS011;37998;53.416;6.730;2022-11-15T00:52:03;32.72;;;24.13;;
51981;SDS011;37998;53.416;6.730;2022-11-15T00:54:28;30.38;;;23.77;;
51981;SDS011;37998;53.416;6.730;2022-11-15T00:56:54;33.30;;;23.25;;
51981;SDS011;37998;53.416;6.730;2022-11-15T00:59:19;32.42;;;22.88;;
51981;SDS011;37998;53.416;6.730;2022-11-15T01:01:45;29.38;;;21.98;;
51981;SDS011;37998;53.416;6.730;2022-11-15T01:04:10;32.38;;;23.15;;
51981;SDS011;37998;53.416;6.730;2022-11-15T01:06:36;30.95;;;23.70;;
51981;SDS011;37998;53.416;6.730;2022-11-15T01:09:02;33.20;;;23.52;;
51981;SDS011;37998;53.416;6.730;2022-11-15T01:11:28;33.38;;;23.73;;
51981;SDS011;37998;53.416;6.730;2022-11-15T01:13:54;30.52;;;22.80;;
51981;SDS011;37998;53.416;6.730;2022-11-15T01:16:20;36.03;;;24.20;;
51981;SDS011;37998;53.416;6.730;2022-11-15T01:18:45;33.38;;;23.65;;
51981;SDS011;37998;53.416;6.730;2022-11-15T01:21:12;31.45;;;23.20;;
51981;SDS011;37998;53.416;6.730;2022-11-15T01:23:39;32.25;;;24.55;;
51981;SDS011;37998;53.416;6.730;2022-11-15T01:26:06;33.05;;;24.20;;
51981;SDS011;37998;53.416;6.730;2022-11-15T01:28:36;34.50;;;23.52;;
51981;SDS011;37998;53.416;6.730;2022-11-15T01:31:05;34.88;;;23.60;;
51981;SDS011;37998;53.416;6.730;2022-11-15T01:33:33;32.03;;;24.80;;
51981;SDS011;37998;53.416;6.730;2022-11-15T01:36:05;30.58;;;23.85;;
51981;SDS011;37998;53.416;6.730;2022-11-15T01:38:33;32.55;;;24.95;;
51981;SDS011;37998;53.416;6.730;2022-11-15T01:40:59;33.33;;;24.35;;
51981;SDS011;37998;53.416;6.730;2022-11-15T01:43:26;32.50;;;23.92;;
51981;SDS011;37998;53.416;6.730;2022-11-15T01:45:58;29.92;;;22.77;;
51981;SDS011;37998;53.416;6.730;2022-11-15T01:48:31;35.92;;;24.70;;
51981;SDS011;37998;53.416;6.730;2022-11-15T01:50:59;31.05;;;23.50;;
51981;SDS011;37998;53.416;6.730;2022-11-15T01:53:28;32.17;;;22.55;;
51981;SDS011;37998;53.416;6.730;2022-11-15T01:55:56;32.10;;;23.35;;
51981;SDS011;37998;53.416;6.730;2022-11-15T01:58:23;29.80;;;21.60;;
51981;SDS011;37998;53.416;6.730;2022-11-15T02:00:49;29.83;;;23.75;;
51981;SDS011;37998;53.416;6.730;2022-11-15T02:03:15;32.75;;;23.33;;
51981;SDS011;37998;53.416;6.730;2022-11-15T02:05:41;32.55;;;23.90;;
51981;SDS011;37998;53.416;6.730;2022-11-15T02:08:08;31.65;;;23.90;;
51981;SDS011;37998;53.416;6.730;2022-11-15T02:10:44;32.95;;;24.77;;
51981;SDS011;37998;53.416;6.730;2022-11-15T02:13:14;32.20;;;24.02;;
51981;SDS011;37998;53.416;6.730;2022-11-15T02:15:47;32.35;;;24.35;;
51981;SDS011;37998;53.416;6.730;2022-11-15T02:18:27;32.22;;;24.38;;
51981;SDS011;37998;53.416;6.730;2022-11-15T02:26:57;35.70;;;23.58;;
51981;SDS011;37998;53.416;6.730;2022-11-15T02:32:43;32.85;;;22.23;;
51981;SDS011;37998;53.416;6.730;2022-11-15T02:35:27;33.85;;;23.60;;
51981;SDS011;37998;53.416;6.730;2022-11-15T02:40:46;31.15;;;21.27;;
51981;SDS011;37998;53.416;6.730;2022-11-15T02:43:27;30.27;;;21.02;;
51981;SDS011;37998;53.416;6.730;2022-11-15T02:46:28;29.17;;;21.48;;
51981;SDS011;37998;53.416;6.730;2022-11-15T02:49:13;28.60;;;22.33;;
51981;SDS011;37998;53.416;6.730;2022-11-15T02:51:40;28.20;;;20.75;;
51981;SDS011;37998;53.416;6.730;2022-11-15T02:54:15;31.67;;;21.20;;
51981;SDS011;37998;53.416;6.730;2022-11-15T02:56:46;32.33;;;21.27;;
51981;SDS011;37998;53.416;6.730;2022-11-15T02:59:13;29.30;;;20.80;;
51981;SDS011;37998;53.416;6.730;2022-11-15T03:02:06;28.30;;;20.08;;
51981;SDS011;37998;53.416;6.730;2022-11-15T03:04:54;28.88;;;19.65;;
51981;SDS011;37998;53.416;6.730;2022-11-15T03:07:25;31.23;;;18.90;;
51981;SDS011;37998;53.416;6.730;2022-11-15T03:10:07;29.63;;;19.58;;
51981;SDS011;37998;53.416;6.730;2022-11-15T03:12:41;29.05;;;19.67;;
51981;SDS011;37998;53.416;6.730;2022-11-15T03:15:37;29.15;;;19.77;;
51981;SDS011;37998;53.416;6.730;2022-11-15T03:18:13;32.80;;;20.08;;
51981;SDS011;37998;53.416;6.730;2022-11-15T03:20:44;33.47;;;20.92;;
51981;SDS011;37998;53.416;6.730;2022-11-15T03:23:10;33.28;;;20.60;;
51981;SDS011;37998;53.416;6.730;2022-11-15T03:25:38;35.70;;;21.55;;
51981;SDS011;37998;53.416;6.730;2022-11-15T03:28:08;31.50;;;20.60;;
51981;SDS011;37998;53.416;6.730;2022-11-15T03:30:37;35.08;;;21.70;;
51981;SDS011;37998;53.416;6.730;2022-11-15T03:33:04;34.65;;;22.73;;
51981;SDS011;37998;53.416;6.730;2022-11-15T03:35:32;31.33;;;20.88;;
51981;SDS011;37998;53.416;6.730;2022-11-15T03:40:45;34.00;;;22.10;;
51981;SDS011;37998;53.416;6.730;2022-11-15T03:43:36;30.88;;;20.67;;
51981;SDS011;37998;53.416;6.730;2022-11-15T03:46:12;35.08;;;22.65;;
51981;SDS011;37998;53.416;6.730;2022-11-15T03:48:43;34.85;;;22.42;;
51981;SDS011;37998;53.416;6.730;2022-11-15T03:51:15;35.65;;;22.45;;
51981;SDS011;37998;53.416;6.730;2022-11-15T03:53:41;33.88;;;23.35;;
51981;SDS011;37998;53.416;6.730;2022-11-15T03:56:07;36.50;;;23.25;;
51981;SDS011;37998;53.416;6.730;2022-11-15T03:58:33;32.10;;;22.35;;
51981;SDS011;37998;53.416;6.730;2022-11-15T04:00:58;32.75;;;21.88;;
51981;SDS011;37998;53.416;6.730;2022-11-15T04:03:24;35.08;;;21.42;;
51981;SDS011;37998;53.416;6.730;2022-11-15T04:05:50;31.08;;;21.65;;
51981;SDS011;37998;53.416;6.730;2022-11-15T04:08:16;35.67;;;22.23;;
51981;SDS011;37998;53.416;6.730;2022-11-15T04:10:41;31.98;;;21.98;;
51981;SDS011;37998;53.416;6.730;2022-11-15T04:13:07;34.00;;;21.65;;
51981;SDS011;37998;53.416;6.730;2022-11-15T04:15:33;34.80;;;22.15;;
51981;SDS011;37998;53.416;6.730;2022-11-15T04:17:59;33.55;;;22.15;;
51981;SDS011;37998;53.416;6.730;2022-11-15T04:20:26;36.22;;;22.70;;
51981;SDS011;37998;53.416;6.730;2022-11-15T04:23:13;32.67;;;21.20;;
51981;SDS011;37998;53.416;6.730;2022-11-15T04:26:02;34.17;;;22.08;;
51981;SDS011;37998;53.416;6.730;2022-11-15T04:28:29;33.05;;;21.42;;
51981;SDS011;37998;53.416;6.730;2022-11-15T04:30:55;31.95;;;20.50;;
51981;SDS011;37998;53.416;6.730;2022-11-15T04:33:21;33.70;;;21.85;;
51981;SDS011;37998;53.416;6.730;2022-11-15T04:35:47;33.88;;;21.65;;
51981;SDS011;37998;53.416;6.730;2022-11-15T04:38:32;36.22;;;21.98;;
51981;SDS011;37998;53.416;6.730;2022-11-15T04:40:59;34.85;;;22.30;;
51981;SDS011;37998;53.416;6.730;2022-11-15T04:43:25;37.22;;;21.85;;
51981;SDS011;37998;53.416;6.730;2022-11-15T04:45:51;36.50;;;22.40;;
51981;SDS011;37998;53.416;6.730;2022-11-15T04:48:16;38.42;;;24.20;;
51981;SDS011;37998;53.416;6.730;2022-11-15T04:50:42;37.22;;;23.55;;
51981;SDS011;37998;53.416;6.730;2022-11-15T04:53:07;41.35;;;24.73;;
51981;SDS011;37998;53.416;6.730;2022-11-15T04:55:33;41.38;;;23.60;;
51981;SDS011;37998;53.416;6.730;2022-11-15T04:57:59;41.30;;;24.25;;
51981;SDS011;37998;53.416;6.730;2022-11-15T05:00:26;44.45;;;23.98;;
51981;SDS011;37998;53.416;6.730;2022-11-15T05:02:53;45.30;;;24.73;;
51981;SDS011;37998;53.416;6.730;2022-11-15T05:05:38;52.38;;;26.02;;
51981;SDS011;37998;53.416;6.730;2022-11-15T05:08:04;44.10;;;25.40;;
51981;SDS011;37998;53.416;6.730;2022-11-15T05:10:30;45.33;;;24.50;;
51981;SDS011;37998;53.416;6.730;2022-11-15T05:12:55;47.08;;;26.48;;
51981;SDS011;37998;53.416;6.730;2022-11-15T05:15:23;57.53;;;27.55;;
51981;SDS011;37998;53.416;6.730;2022-11-15T05:17:49;49.70;;;26.58;;
51981;SDS011;37998;53.416;6.730;2022-11-15T05:20:14;53.92;;;28.35;;
51981;SDS011;37998;53.416;6.730;2022-11-15T05:22:40;54.58;;;28.52;;
51981;SDS011;37998;53.416;6.730;2022-11-15T05:25:06;55.97;;;30.38;;
51981;SDS011;37998;53.416;6.730;2022-11-15T05:27:33;50.75;;;27.90;;
51981;SDS011;37998;53.416;6.730;2022-11-15T05:30:02;50.63;;;28.55;;
51981;SDS011;37998;53.416;6.730;2022-11-15T05:32:28;52.10;;;28.20;;
51981;SDS011;37998;53.416;6.730;2022-11-15T05:34:54;54.00;;;29.25;;
51981;SDS011;37998;53.416;6.730;2022-11-15T05:37:20;52.45;;;27.10;;
51981;SDS011;37998;53.416;6.730;2022-11-15T05:39:46;51.70;;;26.00;;
51981;SDS011;37998;53.416;6.730;2022-11-15T05:42:12;54.95;;;27.00;;
51981;SDS011;37998;53.416;6.730;2022-11-15T05:44:41;57.00;;;27.90;;
51981;SDS011;37998;53.416;6.730;2022-11-15T05:47:11;49.00;;;26.67;;
51981;SDS011;37998;53.416;6.730;2022-11-15T05:49:42;60.42;;;28.08;;
51981;SDS011;37998;53.416;6.730;2022-11-15T05:52:11;61.20;;;28.00;;
51981;SDS011;37998;53.416;6.730;2022-11-15T05:54:40;63.88;;;27.73;;
51981;SDS011;37998;53.416;6.730;2022-11-15T05:57:06;62.90;;;30.65;;
51981;SDS011;37998;53.416;6.730;2022-11-15T05:59:32;65.57;;;31.08;;
51981;SDS011;37998;53.416;6.730;2022-11-15T06:01:59;69.57;;;29.85;;
51981;SDS011;37998;53.416;6.730;2022-11-15T06:04:25;72.68;;;32.25;;
51981;SDS011;37998;53.416;6.730;2022-11-15T06:06:51;74.78;;;31.02;;
51981;SDS011;37998;53.416;6.730;2022-11-15T06:09:16;82.65;;;33.67;;
51981;SDS011;37998;53.416;6.730;2022-11-15T06:11:42;73.30;;;33.80;;
51981;SDS011;37998;53.416;6.730;2022-11-15T06:14:08;75.20;;;33.63;;
51981;SDS011;37998;53.416;6.730;2022-11-15T06:16:33;88.53;;;36.00;;
51981;SDS011;37998;53.416;6.730;2022-11-15T06:18:59;92.97;;;34.95;;
51981;SDS011;37998;53.416;6.730;2022-11-15T06:21:24;89.05;;;35.95;;
51981;SDS011;37998;53.416;6.730;2022-11-15T06:23:52;100.22;;;38.40;;
51981;SDS011;37998;53.416;6.730;2022-11-15T06:26:18;93.75;;;37.78;;
51981;SDS011;37998;53.416;6.730;2022-11-15T06:28:44;87.65;;;37.58;;
51981;SDS011;37998;53.416;6.730;2022-11-15T06:31:10;106.78;;;38.40;;
51981;SDS011;37998;53.416;6.730;2022-11-15T06:33:37;90.85;;;38.88;;
51981;SDS011;37998;53.416;6.730;2022-11-15T06:36:04;93.43;;;39.05;;
51981;SDS011;37998;53.416;6.730;2022-11-15T06:38:31;92.95;;;38.88;;
51981;SDS011;37998;53.416;6.730;2022-11-15T06:41:01;109.03;;;39.47;;
51981;SDS011;37998;53.416;6.730;2022-11-15T06:43:27;103.15;;;39.75;;
51981;SDS011;37998;53.416;6.730;2022-11-15T06:45:53;117.38;;;41.50;;
51981;SDS011;37998;53.416;6.730;2022-11-15T06:48:19;126.32;;;42.13;;
51981;SDS011;37998;53.416;6.730;2022-11-15T06:50:50;110.28;;;40.40;;
51981;SDS011;37998;53.416;6.730;2022-11-15T06:53:19;100.97;;;41.30;;
51981;SDS011;37998;53.416;6.730;2022-11-15T06:55:45;105.20;;;40.15;;
51981;SDS011;37998;53.416;6.730;2022-11-15T06:58:10;98.68;;;40.92;;
51981;SDS011;37998;53.416;6.730;2022-11-15T07:00:36;113.53;;;42.13;;
51981;SDS011;37998;53.416;6.730;2022-11-15T07:03:02;101.13;;;43.83;;
51981;SDS011;37998;53.416;6.730;2022-11-15T07:05:28;118.13;;;43.90;;
51981;SDS011;37998;53.416;6.730;2022-11-15T07:07:54;123.70;;;43.38;;
51981;SDS011;37998;53.416;6.730;2022-11-15T07:10:21;123.50;;;44.10;;
51981;SDS011;37998;53.416;6.730;2022-11-15T07:12:49;117.05;;;43.28;;
51981;SDS011;37998;53.416;6.730;2022-11-15T07:15:22;113.32;;;44.10;;
51981;SDS011;37998;53.416;6.730;2022-11-15T07:17:48;115.70;;;45.92;;
51981;SDS011;37998;53.416;6.730;2022-11-15T07:20:14;119.10;;;47.15;;
51981;SDS011;37998;53.416;6.730;2022-11-15T07:22:41;121.82;;;45.63;;
51981;SDS011;37998;53.416;6.730;2022-11-15T07:25:07;113.90;;;45.13;;
51981;SDS011;37998;53.416;6.730;2022-11-15T07:27:34;118.85;;;45.33;;
51981;SDS011;37998;53.416;6.730;2022-11-15T07:29:59;120.35;;;45.38;;
51981;SDS011;37998;53.416;6.730;2022-11-15T07:32:25;122.50;;;46.33;;
51981;SDS011;37998;53.416;6.730;2022-11-15T07:34:51;125.95;;;48.22;;
51981;SDS011;37998;53.416;6.730;2022-11-15T07:37:17;119.30;;;44.90;;
51981;SDS011;37998;53.416;6.730;2022-11-15T07:39:43;122.22;;;45.33;;
51981;SDS011;37998;53.416;6.730;2022-11-15T07:42:08;124.35;;;48.08;;
51981;SDS011;37998;53.416;6.730;2022-11-15T07:44:53;117.65;;;45.97;;
51981;SDS011;37998;53.416;6.730;2022-11-15T07:47:19;100.78;;;44.80;;
51981;SDS011;37998;53.416;6.730;2022-11-15T07:49:45;105.80;;;45.60;;
51981;SDS011;37998;53.416;6.730;2022-11-15T07:52:12;112.97;;;44.50;;
51981;SDS011;37998;53.416;6.730;2022-11-15T07:54:38;97.47;;;45.20;;
51981;SDS011;37998;53.416;6.730;2022-11-15T07:57:04;103.22;;;42.85;;
51981;SDS011;37998;53.416;6.730;2022-11-15T07:59:30;100.70;;;44.55;;
51981;SDS011;37998;53.416;6.730;2022-11-15T08:01:56;91.68;;;43.22;;
51981;SDS011;37998;53.416;6.730;2022-11-15T08:04:22;100.25;;;42.95;;
51981;SDS011;37998;53.416;6.730;2022-11-15T08:06:47;87.00;;;42.83;;
51981;SDS011;37998;53.416;6.730;2022-11-15T08:09:13;92.63;;;42.28;;
51981;SDS011;37998;53.416;6.730;2022-11-15T08:11:39;90.35;;;42.13;;
51981;SDS011;37998;53.416;6.730;2022-11-15T08:14:04;94.15;;;41.60;;
51981;SDS011;37998;53.416;6.730;2022-11-15T08:16:30;81.45;;;40.17;;
51981;SDS011;37998;53.416;6.730;2022-11-15T08:18:55;84.32;;;38.63;;
51981;SDS011;37998;53.416;6.730;2022-11-15T08:21:21;75.22;;;37.90;;
51981;SDS011;37998;53.416;6.730;2022-11-15T08:23:48;79.13;;;39.15;;
51981;SDS011;37998;53.416;6.730;2022-11-15T08:26:14;73.65;;;36.35;;
51981;SDS011;37998;53.416;6.730;2022-11-15T08:28:39;80.78;;;38.65;;
51981;SDS011;37998;53.416;6.730;2022-11-15T08:31:05;77.03;;;37.05;;
51981;SDS011;37998;53.416;6.730;2022-11-15T08:33:31;73.95;;;36.47;;
51981;SDS011;37998;53.416;6.730;2022-11-15T08:36:01;68.80;;;35.88;;
51981;SDS011;37998;53.416;6.730;2022-11-15T08:38:27;72.22;;;36.10;;
51981;SDS011;37998;53.416;6.730;2022-11-15T08:41:03;63.33;;;35.40;;
51981;SDS011;37998;53.416;6.730;2022-11-15T08:43:29;67.15;;;35.25;;
51981;SDS011;37998;53.416;6.730;2022-11-15T08:45:56;58.33;;;34.97;;
51981;SDS011;37998;53.416;6.730;2022-11-15T08:48:22;69.97;;;33.95;;
51981;SDS011;37998;53.416;6.730;2022-11-15T08:50:48;56.70;;;34.03;;
51981;SDS011;37998;53.416;6.730;2022-11-15T08:53:13;53.17;;;32.83;;
51981;SDS011;37998;53.416;6.730;2022-11-15T08:55:40;56.17;;;32.08;;
51981;SDS011;37998;53.416;6.730;2022-11-15T08:58:06;59.92;;;33.15;;
51981;SDS011;37998;53.416;6.730;2022-11-15T09:00:32;55.10;;;31.02;;
51981;SDS011;37998;53.416;6.730;2022-11-15T09:02:58;56.10;;;32.22;;
51981;SDS011;37998;53.416;6.730;2022-11-15T09:05:24;53.22;;;33.03;;
51981;SDS011;37998;53.416;6.730;2022-11-15T09:07:53;56.92;;;31.55;;
51981;SDS011;37998;53.416;6.730;2022-11-15T09:10:20;52.78;;;31.75;;
51981;SDS011;37998;53.416;6.730;2022-11-15T09:12:46;47.83;;;28.95;;
51981;SDS011;37998;53.416;6.730;2022-11-15T09:15:13;53.72;;;30.85;;
51981;SDS011;37998;53.416;6.730;2022-11-15T09:17:40;49.08;;;28.65;;
51981;SDS011;37998;53.416;6.730;2022-11-15T09:20:06;51.72;;;30.65;;
51981;SDS011;37998;53.416;6.730;2022-11-15T09:22:32;46.20;;;27.83;;
51981;SDS011;37998;53.416;6.730;2022-11-15T09:24:58;45.97;;;28.80;;
51981;SDS011;37998;53.416;6.730;2022-11-15T09:27:27;49.35;;;28.35;;
51981;SDS011;37998;53.416;6.730;2022-11-15T09:29:54;50.70;;;29.83;;
51981;SDS011;37998;53.416;6.730;2022-11-15T09:32:20;45.80;;;27.95;;
51981;SDS011;37998;53.416;6.730;2022-11-15T09:34:45;40.88;;;27.25;;
51981;SDS011;37998;53.416;6.730;2022-11-15T09:37:11;40.85;;;26.17;;
51981;SDS011;37998;53.416;6.730;2022-11-15T09:39:37;39.47;;;26.02;;
51981;SDS011;37998;53.416;6.730;2022-11-15T09:44:51;44.55;;;27.02;;
51981;SDS011;37998;53.416;6.730;2022-11-15T09:50:27;38.20;;;25.30;;
51981;SDS011;37998;53.416;6.730;2022-11-15T09:52:57;34.70;;;24.27;;
51981;SDS011;37998;53.416;6.730;2022-11-15T09:55:26;41.15;;;24.70;;
51981;SDS011;37998;53.416;6.730;2022-11-15T10:00:58;32.42;;;23.50;;
51981;SDS011;37998;53.416;6.730;2022-11-15T10:03:33;31.98;;;21.67;;
51981;SDS011;37998;53.416;6.730;2022-11-15T10:06:01;36.75;;;23.90;;
51981;SDS011;37998;53.416;6.730;2022-11-15T10:11:08;35.78;;;22.55;;
51981;SDS011;37998;53.416;6.730;2022-11-15T10:13:36;33.42;;;22.73;;
51981;SDS011;37998;53.416;6.730;2022-11-15T10:24:10;30.17;;;21.77;;
51981;SDS011;37998;53.416;6.730;2022-11-15T10:26:37;33.38;;;22.40;;
51981;SDS011;37998;53.416;6.730;2022-11-15T10:29:03;31.80;;;21.63;;
51981;SDS011;37998;53.416;6.730;2022-11-15T10:31:29;32.65;;;22.20;;
51981;SDS011;37998;53.416;6.730;2022-11-15T10:34:28;31.10;;;22.48;;
51981;SDS011;37998;53.416;6.730;2022-11-15T10:36:58;36.22;;;23.48;;
51981;SDS011;37998;53.416;6.730;2022-11-15T10:39:25;29.35;;;22.15;;
51981;SDS011;37998;53.416;6.730;2022-11-15T10:41:52;32.85;;;22.70;;
51981;SDS011;37998;53.416;6.730;2022-11-15T10:49:26;31.65;;;22.65;;
51981;SDS011;37998;53.416;6.730;2022-11-15T10:54:40;33.85;;;22.70;;
51981;SDS011;37998;53.416;6.730;2022-11-15T10:57:14;34.13;;;21.45;;
51981;SDS011;37998;53.416;6.730;2022-11-15T10:59:46;33.22;;;22.73;;
51981;SDS011;37998;53.416;6.730;2022-11-15T11:04:54;35.90;;;24.23;;
51981;SDS011;37998;53.416;6.730;2022-11-15T11:07:22;33.35;;;24.15;;
51981;SDS011;37998;53.416;6.730;2022-11-15T11:12:43;41.75;;;27.00;;
51981;SDS011;37998;53.416;6.730;2022-11-15T11:15:11;39.95;;;28.02;;
51981;SDS011;37998;53.416;6.730;2022-11-15T11:22:57;38.45;;;28.80;;
51981;SDS011;37998;53.416;6.730;2022-11-15T11:34:38;42.58;;;29.20;;
51981;SDS011;37998;53.416;6.730;2022-11-15T11:38:21;40.63;;;28.42;;
51981;SDS011;37998;53.416;6.730;2022-11-15T11:40:40;44.00;;;30.50;;
51981;SDS011;37998;53.416;6.730;2022-11-15T11:51:32;48.97;;;31.83;;
51981;SDS011;37998;53.416;6.730;2022-11-15T11:54:05;46.85;;;30.65;;
51981;SDS011;37998;53.416;6.730;2022-11-15T11:56:40;46.08;;;29.80;;
51981;SDS011;37998;53.416;6.730;2022-11-15T11:59:16;43.50;;;31.33;;
51981;SDS011;37998;53.416;6.730;2022-11-15T12:01:46;41.67;;;30.70;;
51981;SDS011;37998;53.416;6.730;2022-11-15T12:06:46;50.10;;;32.50;;
51981;SDS011;37998;53.416;6.730;2022-11-15T12:09:23;55.08;;;35.63;;
51981;SDS011;37998;53.416;6.730;2022-11-15T12:17:01;46.50;;;32.00;;
51981;SDS011;37998;53.416;6.730;2022-11-15T12:19:29;46.67;;;31.40;;
51981;SDS011;37998;53.416;6.730;2022-11-15T12:21:58;38.70;;;29.67;;
51981;SDS011;37998;53.416;6.730;2022-11-15T12:24:43;42.22;;;28.17;;
51981;SDS011;37998;53.416;6.730;2022-11-15T12:28:06;36.95;;;27.77;;
51981;SDS011;37998;53.416;6.730;2022-11-15T12:30:18;35.45;;;28.33;;
51981;SDS011;37998;53.416;6.730;2022-11-15T12:32:54;33.42;;;26.98;;
51981;SDS011;37998;53.416;6.730;2022-11-15T12:37:59;34.53;;;25.13;;
51981;SDS011;37998;53.416;6.730;2022-11-15T12:40:29;33.45;;;26.00;;
51981;SDS011;37998;53.416;6.730;2022-11-15T12:43:01;31.05;;;23.88;;
51981;SDS011;37998;53.416;6.730;2022-11-15T12:45:36;25.40;;;22.15;;
51981;SDS011;37998;53.416;6.730;2022-11-15T13:12:10;12.40;;;10.23;;
51981;SDS011;37998;53.416;6.730;2022-11-15T13:14:59;11.25;;;8.95;;
51981;SDS011;37998;53.416;6.730;2022-11-15T13:17:35;12.73;;;9.75;;
51981;SDS011;37998;53.416;6.730;2022-11-15T13:22:39;9.85;;;7.63;;
51981;SDS011;37998;53.416;6.730;2022-11-15T13:25:23;9.27;;;6.95;;
51981;SDS011;37998;53.416;6.730;2022-11-15T13:30:40;10.05;;;7.75;;
51981;SDS011;37998;53.416;6.730;2022-11-15T13:35:46;9.60;;;6.88;;
51981;SDS011;37998;53.416;6.730;2022-11-15T13:40:49;8.35;;;6.70;;
51981;SDS011;37998;53.416;6.730;2022-11-15T13:46:04;8.48;;;6.40;;
51981;SDS011;37998;53.416;6.730;2022-11-15T13:48:30;6.90;;;5.60;;
51981;SDS011;37998;53.416;6.730;2022-11-15T13:50:55;7.63;;;5.20;;
51981;SDS011;37998;53.416;6.730;2022-11-15T13:53:22;8.05;;;5.70;;
51981;SDS011;37998;53.416;6.730;2022-11-15T13:55:48;8.65;;;5.60;;
51981;SDS011;37998;53.416;6.730;2022-11-15T13:58:14;10.82;;;5.15;;
51981;SDS011;37998;53.416;6.730;2022-11-15T14:03:21;9.10;;;5.15;;
51981;SDS011;37998;53.416;6.730;2022-11-15T14:08:35;8.13;;;4.70;;
51981;SDS011;37998;53.416;6.730;2022-11-15T14:11:17;7.10;;;4.88;;
51981;SDS011;37998;53.416;6.730;2022-11-15T14:16:54;7.60;;;5.25;;
51981;SDS011;37998;53.416;6.730;2022-11-15T14:24:46;7.55;;;5.43;;
51981;SDS011;37998;53.416;6.730;2022-11-15T14:27:30;14.40;;;5.22;;
51981;SDS011;37998;53.416;6.730;2022-11-15T14:29:56;10.13;;;5.50;;
51981;SDS011;37998;53.416;6.730;2022-11-15T14:32:26;9.93;;;5.32;;
51981;SDS011;37998;53.416;6.730;2022-11-15T14:34:57;7.72;;;5.47;;
51981;SDS011;37998;53.416;6.730;2022-11-15T14:37:25;8.48;;;5.28;;
51981;SDS011;37998;53.416;6.730;2022-11-15T14:39:53;9.52;;;5.40;;
51981;SDS011;37998;53.416;6.730;2022-11-15T14:42:20;11.93;;;5.00;;
51981;SDS011;37998;53.416;6.730;2022-11-15T14:44:46;9.55;;;5.30;;
51981;SDS011;37998;53.416;6.730;2022-11-15T14:47:12;10.32;;;5.30;;
51981;SDS011;37998;53.416;6.730;2022-11-15T14:49:38;7.78;;;5.13;;
51981;SDS011;37998;53.416;6.730;2022-11-15T14:55:00;7.97;;;5.40;;
51981;SDS011;37998;53.416;6.730;2022-11-15T14:57:28;8.73;;;5.85;;
51981;SDS011;37998;53.416;6.730;2022-11-15T14:59:55;8.20;;;5.97;;
51981;SDS011;37998;53.416;6.730;2022-11-15T15:02:25;10.50;;;6.07;;
51981;SDS011;37998;53.416;6.730;2022-11-15T15:04:52;10.38;;;5.90;;
51981;SDS011;37998;53.416;6.730;2022-11-15T15:07:18;8.88;;;6.28;;
51981;SDS011;37998;53.416;6.730;2022-11-15T15:09:44;6.80;;;5.40;;
51981;SDS011;37998;53.416;6.730;2022-11-15T15:12:18;9.07;;;5.72;;
51981;SDS011;37998;53.416;6.730;2022-11-15T15:14:45;8.32;;;5.88;;
51981;SDS011;37998;53.416;6.730;2022-11-15T15:17:12;9.65;;;5.28;;
51981;SDS011;37998;53.416;6.730;2022-11-15T15:19:38;8.50;;;5.57;;
51981;SDS011;37998;53.416;6.730;2022-11-15T15:22:04;7.32;;;5.53;;
51981;SDS011;37998;53.416;6.730;2022-11-15T15:24:30;9.93;;;5.65;;
51981;SDS011;37998;53.416;6.730;2022-11-15T15:26:56;8.45;;;5.25;;
51981;SDS011;37998;53.416;6.730;2022-11-15T15:29:21;7.60;;;5.53;;
51981;SDS011;37998;53.416;6.730;2022-11-15T15:31:47;8.23;;;5.53;;
51981;SDS011;37998;53.416;6.730;2022-11-15T15:34:13;7.00;;;5.30;;
51981;SDS011;37998;53.416;6.730;2022-11-15T15:36:38;6.68;;;5.07;;
51981;SDS011;37998;53.416;6.730;2022-11-15T15:39:04;7.63;;;5.45;;
51981;SDS011;37998;53.416;6.730;2022-11-15T15:41:30;8.88;;;5.28;;
51981;SDS011;37998;53.416;6.730;2022-11-15T15:43:55;8.95;;;5.60;;
51981;SDS011;37998;53.416;6.730;2022-11-15T15:46:21;9.40;;;5.32;;
51981;SDS011;37998;53.416;6.730;2022-11-15T15:48:47;9.77;;;6.38;;
51981;SDS011;37998;53.416;6.730;2022-11-15T15:51:12;7.55;;;6.05;;
51981;SDS011;37998;53.416;6.730;2022-11-15T15:53:38;7.93;;;5.53;;
51981;SDS011;37998;53.416;6.730;2022-11-15T15:56:04;6.70;;;5.10;;
51981;SDS011;37998;53.416;6.730;2022-11-15T15:58:32;7.72;;;5.00;;
51981;SDS011;37998;53.416;6.730;2022-11-15T16:00:58;7.20;;;5.07;;
51981;SDS011;37998;53.416;6.730;2022-11-15T16:03:24;7.40;;;4.90;;
51981;SDS011;37998;53.416;6.730;2022-11-15T16:05:52;8.70;;;5.20;;
51981;SDS011;37998;53.416;6.730;2022-11-15T16:08:22;11.63;;;5.47;;
51981;SDS011;37998;53.416;6.730;2022-11-15T16:10:49;11.98;;;5.97;;
51981;SDS011;37998;53.416;6.730;2022-11-15T16:13:15;6.72;;;5.28;;
51981;SDS011;37998;53.416;6.730;2022-11-15T16:15:42;9.13;;;4.80;;
51981;SDS011;37998;53.416;6.730;2022-11-15T16:18:08;7.35;;;5.38;;
51981;SDS011;37998;53.416;6.730;2022-11-15T16:20:41;6.70;;;4.57;;
51981;SDS011;37998;53.416;6.730;2022-11-15T16:23:11;8.32;;;6.07;;
51981;SDS011;37998;53.416;6.730;2022-11-15T16:25:40;6.57;;;4.90;;
51981;SDS011;37998;53.416;6.730;2022-11-15T16:28:19;7.60;;;5.03;;
51981;SDS011;37998;53.416;6.730;2022-11-15T16:33:33;8.77;;;5.28;;
51981;SDS011;37998;53.416;6.730;2022-11-15T16:35:58;5.57;;;4.70;;
51981;SDS011;37998;53.416;6.730;2022-11-15T16:38:24;7.32;;;4.95;;
51981;SDS011;37998;53.416;6.730;2022-11-15T16:40:50;6.38;;;5.13;;
51981;SDS011;37998;53.416;6.730;2022-11-15T16:43:15;6.32;;;5.47;;
51981;SDS011;37998;53.416;6.730;2022-11-15T16:45:41;9.35;;;8.25;;
51981;SDS011;37998;53.416;6.730;2022-11-15T16:48:22;6.20;;;5.55;;
51981;SDS011;37998;53.416;6.730;2022-11-15T16:50:49;8.38;;;5.18;;
51981;SDS011;37998;53.416;6.730;2022-11-15T16:53:18;8.65;;;4.65;;